Terminal Aerodrome Forecast
Issued by NWS

Home | Current Version | Previous Version | Text Only | Print | Product List | Glossary On
Versions: 1 2 3 4 5 6 7 8 9 10 11 12 13
001
FTUS45 KREV 251737
TAFMMH
TAF
KMMH 251737Z 2518/2618 14006KT P6SM SKC
     FM252000 23012G20KT P6SM SKC
     FM260100 29010G19KT P6SM SKC
     FM260500 VRB04KT P6SM SKC=

USA.gov is the U.S. government's official web portal to all federal, state and local government web resources and services.